createdAt,value
2018-03-22T00:00:54.575Z,3.72
2018-03-22T00:01:54.567Z,3.72
2018-03-22T00:02:54.560Z,3.70
2018-03-22T00:03:54.548Z,3.72
2018-03-22T00:04:54.542Z,3.69
2018-03-22T00:05:54.531Z,3.69
2018-03-22T00:06:54.524Z,3.73
2018-03-22T00:07:54.515Z,3.76
2018-03-22T00:08:54.508Z,3.78
2018-03-22T00:09:54.504Z,3.83
2018-03-22T00:10:54.491Z,3.80
2018-03-22T00:11:54.484Z,3.70
2018-03-22T00:12:54.474Z,3.73
2018-03-22T00:13:54.467Z,3.69
2018-03-22T00:14:54.458Z,3.66
2018-03-22T00:15:54.450Z,3.72
2018-03-22T00:16:54.442Z,3.68
2018-03-22T00:17:54.434Z,3.70
2018-03-22T00:18:54.427Z,3.65
2018-03-22T00:19:54.417Z,3.76
2018-03-22T00:20:54.409Z,3.69
2018-03-22T00:21:54.403Z,3.68
2018-03-22T00:22:54.394Z,3.65
2018-03-22T00:23:54.384Z,3.73
2018-03-22T00:24:54.375Z,3.73
2018-03-22T00:25:54.381Z,3.78
2018-03-22T00:26:54.362Z,3.75
2018-03-22T00:27:54.351Z,3.72
2018-03-22T00:28:54.348Z,3.73
2018-03-22T00:29:54.349Z,3.78
2018-03-22T00:30:54.328Z,3.69
2018-03-22T00:31:54.320Z,3.78
2018-03-22T00:32:54.352Z,3.70
2018-03-22T00:33:54.307Z,3.72
2018-03-22T00:34:54.299Z,3.72
2018-03-22T00:35:54.287Z,3.78
2018-03-22T00:36:54.277Z,3.87
2018-03-22T00:37:54.268Z,3.80
2018-03-22T00:38:54.258Z,3.78
2018-03-22T00:39:54.256Z,3.76
2018-03-22T00:40:54.257Z,3.78
2018-03-22T00:41:54.239Z,3.73
2018-03-22T00:42:54.230Z,3.76
2018-03-22T00:43:54.221Z,3.75
2018-03-22T00:44:54.214Z,3.83
2018-03-22T00:45:54.213Z,3.86
2018-03-22T00:46:54.235Z,3.88
2018-03-22T00:47:54.187Z,3.87
2018-03-22T00:48:54.176Z,3.84
2018-03-22T00:49:54.174Z,3.79
2018-03-22T00:50:54.175Z,3.83
2018-03-22T00:51:54.155Z,3.75
2018-03-22T00:52:54.144Z,3.78
2018-03-22T00:53:54.142Z,3.80
2018-03-22T00:54:54.132Z,3.79
2018-03-22T00:55:54.130Z,3.79
2018-03-22T00:56:54.119Z,3.80
2018-03-22T00:57:54.107Z,3.73
2018-03-22T00:58:54.105Z,3.73
2018-03-22T00:59:54.095Z,3.78
2018-03-22T01:00:54.080Z,3.76
2018-03-22T01:01:54.083Z,3.80
2018-03-22T01:02:54.070Z,3.73
2018-03-22T01:03:54.058Z,3.76
2018-03-22T01:04:54.064Z,3.78
2018-03-22T01:05:54.061Z,3.80
2018-03-22T01:06:54.033Z,3.76
2018-03-22T01:07:54.023Z,3.75
2018-03-22T01:08:54.019Z,3.75
2018-03-22T01:09:54.010Z,3.78
2018-03-22T01:10:54.010Z,3.76
2018-03-22T01:11:53.995Z,3.75
2018-03-22T01:12:54.010Z,3.73
2018-03-22T01:13:53.979Z,3.78
2018-03-22T01:14:53.979Z,3.78
2018-03-22T01:15:53.959Z,3.73
2018-03-22T01:16:53.955Z,3.75
2018-03-22T01:17:53.947Z,3.73
2018-03-22T01:18:53.945Z,3.75
2018-03-22T01:19:53.928Z,3.72
2018-03-22T01:20:53.932Z,3.75
2018-03-22T01:21:53.918Z,3.79
2018-03-22T01:22:53.902Z,3.78
2018-03-22T01:23:53.897Z,3.76
2018-03-22T01:24:53.887Z,3.78
2018-03-22T01:25:53.888Z,3.79
2018-03-22T01:26:53.880Z,3.78
2018-03-22T01:27:53.860Z,3.69
2018-03-22T01:28:53.853Z,3.78
2018-03-22T01:29:53.855Z,3.73
2018-03-22T01:30:53.838Z,3.60
2018-03-22T01:31:53.852Z,3.68
2018-03-22T01:32:53.840Z,3.61
2018-03-22T01:33:53.812Z,3.58
2018-03-22T01:34:53.816Z,3.62
2018-03-22T01:35:53.795Z,3.75
2018-03-22T01:36:53.797Z,3.58
2018-03-22T01:37:53.780Z,3.60
2018-03-22T01:38:53.774Z,3.57
2018-03-22T01:39:53.774Z,3.51
2018-03-22T01:40:53.755Z,3.50
2018-03-22T01:41:53.747Z,3.51
2018-03-22T01:42:53.742Z,3.52
2018-03-22T01:43:53.735Z,3.48
2018-03-22T01:44:53.723Z,3.61
2018-03-22T01:45:53.724Z,3.45
2018-03-22T01:46:53.716Z,3.45
2018-03-22T01:47:53.700Z,3.58
2018-03-22T01:48:53.701Z,3.62
2018-03-22T01:49:53.682Z,3.52
2018-03-22T01:50:53.671Z,3.51
2018-03-22T01:51:53.665Z,3.52
2018-03-22T01:52:53.661Z,3.58
2018-03-22T01:53:53.648Z,3.52
2018-03-22T01:54:53.645Z,3.55
2018-03-22T01:55:53.633Z,3.48
2018-03-22T01:56:53.635Z,3.47
2018-03-22T01:57:53.613Z,3.50
2018-03-22T01:58:53.607Z,3.52
2018-03-22T01:59:53.598Z,3.43
2018-03-22T02:00:53.591Z,3.48
2018-03-22T02:01:53.644Z,3.50
2018-03-22T02:02:53.569Z,3.36
2018-03-22T02:03:53.573Z,3.32
2018-03-22T02:04:53.550Z,3.35
2018-03-22T02:05:53.548Z,3.28
2018-03-22T02:06:53.539Z,3.31
2018-03-22T02:07:53.528Z,3.28
2018-03-22T02:08:53.524Z,3.32
2018-03-22T02:09:53.515Z,3.28
2018-03-22T02:10:53.511Z,3.40
2018-03-22T02:11:53.497Z,3.35
2018-03-22T02:12:53.510Z,3.32
2018-03-22T02:13:53.478Z,3.33
2018-03-22T02:14:53.475Z,3.31
2018-03-22T02:15:53.466Z,3.36
2018-03-22T02:16:53.456Z,3.28
2018-03-22T02:17:53.452Z,3.32
2018-03-22T02:18:53.436Z,3.32
2018-03-22T02:19:53.436Z,3.31
2018-03-22T02:20:53.420Z,3.33
2018-03-22T02:21:53.414Z,3.32
2018-03-22T02:22:53.407Z,3.29
2018-03-22T02:23:53.403Z,3.31
2018-03-22T02:24:53.388Z,3.31
2018-03-22T02:25:53.383Z,3.26
2018-03-22T02:26:53.373Z,3.29
2018-03-22T02:27:53.362Z,3.26
2018-03-22T02:28:53.357Z,3.26
2018-03-22T02:29:53.347Z,3.28
2018-03-22T02:30:53.342Z,3.29
2018-03-22T02:31:53.338Z,3.26
2018-03-22T02:32:53.321Z,3.26
2018-03-22T02:33:53.315Z,3.28
2018-03-22T02:34:53.316Z,3.29
2018-03-22T02:35:53.298Z,3.28
2018-03-22T02:36:53.289Z,3.31
2018-03-22T02:37:53.310Z,3.36
2018-03-22T02:38:53.272Z,3.23
2018-03-22T02:39:53.263Z,3.28
2018-03-22T02:40:53.258Z,3.33
2018-03-22T02:41:53.260Z,3.29
2018-03-22T02:42:53.295Z,3.29
2018-03-22T02:43:53.231Z,3.26
2018-03-22T02:44:53.221Z,3.28
2018-03-22T02:45:53.217Z,3.28
2018-03-22T02:46:53.207Z,3.28
2018-03-22T02:47:53.195Z,3.31
2018-03-22T02:48:53.187Z,3.24
2018-03-22T02:49:53.175Z,3.28
2018-03-22T02:50:53.172Z,3.29
2018-03-22T02:51:53.171Z,3.36
2018-03-22T02:52:53.168Z,3.31
2018-03-22T02:53:53.143Z,3.36
2018-03-22T02:54:53.138Z,3.33
2018-03-22T02:55:53.128Z,3.39
2018-03-22T02:56:53.118Z,3.35
2018-03-22T02:57:53.111Z,3.40
2018-03-22T02:58:53.103Z,3.35
2018-03-22T02:59:53.093Z,3.42
2018-03-22T03:00:53.085Z,3.43
2018-03-22T03:01:53.075Z,3.43
2018-03-22T03:02:53.068Z,3.35
2018-03-22T03:03:53.062Z,3.35
2018-03-22T03:04:53.053Z,3.35
2018-03-22T03:05:53.045Z,3.40
2018-03-22T03:06:53.035Z,3.33
2018-03-22T03:07:53.026Z,3.32
2018-03-22T03:08:53.017Z,3.45
2018-03-22T03:09:53.009Z,3.43
2018-03-22T03:10:53.005Z,3.35
2018-03-22T03:11:52.996Z,3.28
2018-03-22T03:12:52.981Z,3.33
2018-03-22T03:13:52.975Z,3.36
2018-03-22T03:14:52.967Z,3.33
2018-03-22T03:15:52.957Z,3.32
2018-03-22T03:16:52.947Z,3.36
2018-03-22T03:17:52.941Z,3.40
2018-03-22T03:18:52.934Z,3.42
2018-03-22T03:19:52.923Z,3.48
2018-03-22T03:20:52.916Z,3.48
2018-03-22T03:21:52.907Z,3.48
2018-03-22T03:22:52.898Z,3.47
2018-03-22T03:23:52.891Z,3.42
2018-03-22T03:24:52.881Z,3.43
2018-03-22T03:25:52.872Z,3.47
2018-03-22T03:26:52.867Z,3.47
2018-03-22T03:27:52.854Z,3.48
2018-03-22T03:28:52.846Z,3.52
2018-03-22T03:29:52.838Z,3.45
2018-03-22T03:30:52.831Z,3.42
2018-03-22T03:31:52.821Z,3.47
2018-03-22T03:32:52.816Z,3.43
2018-03-22T03:33:52.804Z,3.47
2018-03-22T03:34:52.796Z,3.45
2018-03-22T03:35:52.788Z,3.47
2018-03-22T03:36:52.779Z,3.52
2018-03-22T03:37:52.772Z,3.48
2018-03-22T03:38:52.762Z,3.45
2018-03-22T03:39:52.754Z,3.48
2018-03-22T03:40:52.745Z,3.48
2018-03-22T03:41:52.737Z,3.47
2018-03-22T03:42:52.732Z,3.51
2018-03-22T03:43:52.719Z,3.48
2018-03-22T03:44:52.713Z,3.42
2018-03-22T03:45:52.699Z,3.45
2018-03-22T03:46:52.697Z,3.47
2018-03-22T03:47:52.692Z,3.51
2018-03-22T03:48:52.677Z,3.48
2018-03-22T03:49:52.669Z,3.50
2018-03-22T03:50:52.658Z,3.45
2018-03-22T03:51:52.653Z,3.52
2018-03-22T03:52:52.644Z,3.47
2018-03-22T03:53:52.638Z,3.48
2018-03-22T03:54:52.626Z,3.47
2018-03-22T03:55:52.617Z,3.48
2018-03-22T03:56:52.610Z,3.51
2018-03-22T03:57:52.600Z,3.55
2018-03-22T03:58:52.594Z,3.47
2018-03-22T03:59:52.583Z,3.45
2018-03-22T04:00:52.575Z,3.43
2018-03-22T04:01:52.564Z,3.42
2018-03-22T04:02:52.562Z,3.50
2018-03-22T04:03:52.549Z,3.52
2018-03-22T04:04:52.541Z,3.45
2018-03-22T04:05:52.536Z,3.45
2018-03-22T04:06:52.523Z,3.47
2018-03-22T04:07:52.515Z,3.48
2018-03-22T04:08:52.510Z,3.35
2018-03-22T04:09:52.505Z,3.47
2018-03-22T04:10:52.487Z,3.42
2018-03-22T04:11:52.482Z,3.45
2018-03-22T04:12:52.473Z,3.45
2018-03-22T04:13:52.468Z,3.39
2018-03-22T04:14:52.462Z,3.45
2018-03-22T04:15:52.446Z,3.43
2018-03-22T04:16:52.439Z,3.43
2018-03-22T04:17:52.430Z,3.43
2018-03-22T04:18:52.428Z,3.51
2018-03-22T04:19:52.412Z,3.47
2018-03-22T04:20:52.405Z,3.50
2018-03-22T04:21:52.396Z,3.40
2018-03-22T04:22:52.387Z,3.40
2018-03-22T04:23:52.377Z,3.45
2018-03-22T04:24:52.373Z,3.45
2018-03-22T04:25:52.364Z,3.45
2018-03-22T04:26:52.389Z,3.43
2018-03-22T04:27:52.342Z,3.40
2018-03-22T04:28:52.336Z,3.43
2018-03-22T04:29:52.328Z,3.39
2018-03-22T04:30:52.320Z,3.40
2018-03-22T04:31:52.311Z,3.43
2018-03-22T04:32:52.301Z,3.35
2018-03-22T04:33:52.295Z,3.36
2018-03-22T04:34:52.283Z,3.36
2018-03-22T04:35:52.276Z,3.42
2018-03-22T04:36:52.268Z,3.33
2018-03-22T04:37:52.259Z,3.39
2018-03-22T04:38:52.255Z,3.43
2018-03-22T04:39:52.242Z,3.32
2018-03-22T04:40:52.233Z,3.36
2018-03-22T04:41:52.224Z,3.35
2018-03-22T04:42:52.217Z,3.35
2018-03-22T04:43:52.210Z,3.35
2018-03-22T04:44:52.200Z,3.35
2018-03-22T04:45:52.192Z,3.33
2018-03-22T04:46:52.183Z,3.29
2018-03-22T04:47:52.176Z,3.33
2018-03-22T04:48:52.167Z,3.35
2018-03-22T04:49:52.157Z,3.29
2018-03-22T04:50:52.149Z,3.39
2018-03-22T04:51:52.139Z,3.40
2018-03-22T04:52:52.131Z,3.36
2018-03-22T04:53:52.125Z,3.33
2018-03-22T04:54:52.115Z,3.42
2018-03-22T04:55:52.104Z,3.39
2018-03-22T04:56:52.096Z,3.35
2018-03-22T04:57:52.094Z,3.43
2018-03-22T04:58:52.080Z,3.40
2018-03-22T04:59:52.070Z,3.39
2018-03-22T05:00:52.064Z,3.42
2018-03-22T05:01:52.059Z,3.36
2018-03-22T05:02:52.054Z,3.39
2018-03-22T05:03:52.035Z,3.39
2018-03-22T05:04:52.033Z,3.39
2018-03-22T05:05:52.017Z,3.45
2018-03-22T05:06:52.036Z,3.43
2018-03-22T05:07:52.006Z,3.40
2018-03-22T05:08:51.992Z,3.36
2018-03-22T05:09:51.987Z,3.40
2018-03-22T05:10:51.971Z,3.36
2018-03-22T05:11:51.966Z,3.36
2018-03-22T05:12:51.958Z,3.42
2018-03-22T05:13:51.950Z,3.42
2018-03-22T05:14:51.942Z,3.42
2018-03-22T05:15:51.932Z,3.39
2018-03-22T05:16:51.925Z,3.43
2018-03-22T05:17:51.914Z,3.47
2018-03-22T05:18:51.908Z,3.47
2018-03-22T05:19:51.898Z,3.43
2018-03-22T05:20:51.890Z,3.50
2018-03-22T05:21:51.881Z,3.54
2018-03-22T05:22:51.875Z,3.50
2018-03-22T05:23:51.862Z,3.43
2018-03-22T05:24:51.855Z,3.51
2018-03-22T05:25:51.848Z,3.45
2018-03-22T05:26:51.839Z,3.47
2018-03-22T05:27:51.829Z,3.45
2018-03-22T05:28:51.824Z,3.42
2018-03-22T05:29:51.813Z,3.45
2018-03-22T05:30:51.805Z,3.51
2018-03-22T05:31:51.795Z,3.51
2018-03-22T05:32:51.785Z,3.50
2018-03-22T05:33:51.778Z,3.50
2018-03-22T05:34:51.770Z,3.47
2018-03-22T05:35:51.764Z,3.43
2018-03-22T05:36:51.752Z,3.50
2018-03-22T05:37:51.741Z,3.48
2018-03-22T05:38:51.736Z,3.51
2018-03-22T05:39:51.754Z,3.52
2018-03-22T05:40:51.724Z,3.47
2018-03-22T05:41:51.711Z,3.48
2018-03-22T05:42:51.701Z,3.47
2018-03-22T05:43:51.691Z,3.50
2018-03-22T05:44:51.682Z,3.60
2018-03-22T05:45:51.673Z,3.61
2018-03-22T05:46:51.666Z,3.54
2018-03-22T05:47:51.659Z,3.51
2018-03-22T05:48:51.648Z,3.60
2018-03-22T05:49:51.642Z,3.65
2018-03-22T05:50:51.632Z,3.51
2018-03-22T05:51:51.643Z,3.48
2018-03-22T05:52:51.614Z,3.51
2018-03-22T05:53:51.607Z,3.60
2018-03-22T05:54:51.599Z,3.61
2018-03-22T05:55:51.588Z,3.54
2018-03-22T05:56:51.583Z,3.65
2018-03-22T05:57:51.581Z,3.51
2018-03-22T05:58:51.563Z,3.58
2018-03-22T05:59:51.555Z,3.61
2018-03-22T06:00:51.546Z,3.50
2018-03-22T06:01:51.538Z,3.48
2018-03-22T06:02:51.528Z,3.47
2018-03-22T06:03:51.519Z,3.43
2018-03-22T06:04:51.510Z,3.43
2018-03-22T06:05:51.503Z,3.36
2018-03-22T06:06:51.496Z,3.32
2018-03-22T06:07:51.487Z,3.17
2018-03-22T06:08:51.486Z,3.20
2018-03-22T06:09:51.470Z,3.14
2018-03-22T06:10:51.461Z,3.10
2018-03-22T06:11:51.455Z,3.08
2018-03-22T06:12:51.448Z,3.06
2018-03-22T06:13:51.436Z,3.23
2018-03-22T06:14:51.426Z,3.08
2018-03-22T06:15:51.417Z,3.18
2018-03-22T06:16:51.414Z,3.11
2018-03-22T06:17:51.396Z,3.21
2018-03-22T06:18:51.393Z,3.11
2018-03-22T06:19:51.383Z,3.20
2018-03-22T06:20:51.377Z,3.13
2018-03-22T06:21:51.367Z,3.15
2018-03-22T06:22:51.359Z,3.21
2018-03-22T06:23:51.347Z,3.29
2018-03-22T06:24:51.339Z,3.28
2018-03-22T06:25:51.331Z,3.31
2018-03-22T06:26:51.328Z,3.32
2018-03-22T06:27:51.313Z,3.39
2018-03-22T06:28:51.303Z,3.45
2018-03-22T06:29:51.297Z,3.48
2018-03-22T06:30:51.287Z,3.43
2018-03-22T06:31:51.279Z,3.40
2018-03-22T06:32:51.290Z,3.42
2018-03-22T06:33:51.264Z,3.45
2018-03-22T06:34:51.253Z,3.31
2018-03-22T06:35:51.242Z,3.28
2018-03-22T06:36:51.236Z,3.26
2018-03-22T06:37:51.229Z,3.29
2018-03-22T06:38:51.221Z,3.31
2018-03-22T06:39:51.210Z,3.21
2018-03-22T06:40:51.203Z,3.21
2018-03-22T06:41:51.194Z,3.18
2018-03-22T06:42:51.184Z,3.08
2018-03-22T06:43:51.182Z,3.18
2018-03-22T06:44:51.166Z,3.08
2018-03-22T06:45:51.158Z,3.21
2018-03-22T06:46:51.151Z,3.17
2018-03-22T06:47:51.142Z,3.14
2018-03-22T06:48:51.142Z,3.08
2018-03-22T06:49:51.125Z,3.08
2018-03-22T06:50:51.117Z,3.11
2018-03-22T06:51:51.109Z,2.90
2018-03-22T06:52:51.098Z,2.89
2018-03-22T06:53:51.095Z,2.89
2018-03-22T06:54:51.087Z,2.78
2018-03-22T06:55:51.072Z,2.79
2018-03-22T06:56:51.064Z,2.84
2018-03-22T06:57:51.056Z,2.89
2018-03-22T06:58:51.050Z,2.82
2018-03-22T06:59:51.040Z,2.66
2018-03-22T07:00:51.029Z,2.74
2018-03-22T07:01:51.021Z,2.67
2018-03-22T07:02:51.013Z,2.61
2018-03-22T07:03:51.004Z,2.49
2018-03-22T07:04:50.992Z,2.61
2018-03-22T07:05:50.992Z,2.53
2018-03-22T07:06:51.011Z,2.36
2018-03-22T07:07:50.975Z,2.42
2018-03-22T07:08:50.970Z,2.39
2018-03-22T07:09:50.951Z,2.43
2018-03-22T07:10:50.944Z,2.39
2018-03-22T07:11:50.933Z,2.45
2018-03-22T07:12:50.924Z,2.42
2018-03-22T07:13:50.915Z,2.27
2018-03-22T07:14:50.911Z,2.31
2018-03-22T07:15:50.897Z,2.36
2018-03-22T07:16:50.889Z,2.38
2018-03-22T07:17:50.894Z,2.31
2018-03-22T07:18:50.870Z,2.38
2018-03-22T07:19:50.911Z,2.30
2018-03-22T07:20:50.854Z,2.38
2018-03-22T07:21:50.845Z,2.31
2018-03-22T07:22:50.839Z,2.31
2018-03-22T07:23:50.824Z,2.25
2018-03-22T07:24:50.816Z,2.20
2018-03-22T07:25:50.809Z,2.34
2018-03-22T07:26:50.800Z,2.30
2018-03-22T07:27:50.790Z,2.35
2018-03-22T07:28:50.793Z,2.24
2018-03-22T07:29:50.771Z,2.23
2018-03-22T07:30:50.765Z,2.25
2018-03-22T07:31:50.754Z,2.34
2018-03-22T07:32:50.757Z,2.24
2018-03-22T07:33:50.736Z,2.27
2018-03-22T07:34:50.730Z,2.24
2018-03-22T07:35:50.720Z,2.18
2018-03-22T07:36:50.732Z,2.18
2018-03-22T07:37:50.706Z,2.27
2018-03-22T07:38:50.704Z,2.30
2018-03-22T07:39:50.682Z,2.25
2018-03-22T07:40:50.677Z,2.23
2018-03-22T07:41:50.663Z,2.28
2018-03-22T07:42:50.662Z,2.24
2018-03-22T07:43:50.698Z,2.36
2018-03-22T07:44:50.641Z,2.38
2018-03-22T07:45:50.630Z,2.25
2018-03-22T07:46:50.620Z,2.25
2018-03-22T07:47:50.610Z,2.27
2018-03-22T07:48:50.600Z,2.31
2018-03-22T07:49:50.590Z,2.23
2018-03-22T07:50:50.582Z,2.24
2018-03-22T07:51:50.572Z,2.23
2018-03-22T07:52:50.563Z,2.24
2018-03-22T07:53:50.557Z,2.41
2018-03-22T07:54:50.547Z,2.36
2018-03-22T07:55:50.544Z,2.34
2018-03-22T07:56:50.527Z,2.46
2018-03-22T07:57:50.518Z,2.46
2018-03-22T07:58:50.509Z,2.54
2018-03-22T07:59:50.501Z,2.52
2018-03-22T08:00:50.492Z,2.53
2018-03-22T08:01:50.484Z,2.61
2018-03-22T08:02:50.477Z,2.60
2018-03-22T08:03:50.462Z,2.48
2018-03-22T08:04:50.454Z,2.63
2018-03-22T08:05:50.469Z,2.48
2018-03-22T08:06:50.436Z,2.53
2018-03-22T08:07:50.427Z,2.53
2018-03-22T08:08:50.424Z,2.49
2018-03-22T08:09:50.410Z,2.36
2018-03-22T08:10:50.399Z,2.35
2018-03-22T08:11:50.390Z,2.52
2018-03-22T08:12:50.384Z,2.45
2018-03-22T08:13:50.372Z,2.56
2018-03-22T08:14:50.363Z,2.66
2018-03-22T08:15:50.353Z,2.72
2018-03-22T08:16:50.346Z,2.71
2018-03-22T08:17:50.342Z,2.72
2018-03-22T08:18:50.327Z,2.71
2018-03-22T08:19:50.317Z,2.74
2018-03-22T08:20:50.307Z,2.77
2018-03-22T08:21:50.300Z,2.85
2018-03-22T08:22:50.292Z,2.79
2018-03-22T08:23:50.281Z,2.74
2018-03-22T08:24:50.273Z,2.84
2018-03-22T08:25:50.267Z,2.84
2018-03-22T08:26:50.259Z,2.84
2018-03-22T08:27:50.252Z,2.84
2018-03-22T08:28:50.236Z,2.85
2018-03-22T08:29:50.228Z,2.84
2018-03-22T08:30:50.243Z,2.78
2018-03-22T08:31:50.209Z,2.85
2018-03-22T08:32:50.217Z,2.79
2018-03-22T08:33:50.190Z,2.81
2018-03-22T08:34:50.192Z,2.82
2018-03-22T08:35:50.177Z,2.89
2018-03-22T08:36:50.166Z,2.89
2018-03-22T08:37:50.159Z,2.89
2018-03-22T08:38:50.148Z,2.87
2018-03-22T08:39:50.142Z,2.78
2018-03-22T08:40:50.130Z,2.84
2018-03-22T08:41:50.121Z,2.81
2018-03-22T08:42:50.114Z,2.75
2018-03-22T08:43:50.103Z,2.82
2018-03-22T08:44:50.097Z,2.78
2018-03-22T08:45:50.091Z,2.85
2018-03-22T08:46:50.082Z,2.85
2018-03-22T08:47:50.069Z,2.95
2018-03-22T08:48:50.063Z,2.85
2018-03-22T08:49:50.052Z,2.87
2018-03-22T08:50:50.045Z,2.99
2018-03-22T08:51:50.061Z,3.02
2018-03-22T08:52:50.025Z,3.10
2018-03-22T08:53:50.017Z,2.97
2018-03-22T08:54:50.038Z,2.99
2018-03-22T08:55:50.002Z,3.06
2018-03-22T08:56:49.994Z,3.10
2018-03-22T08:57:49.981Z,2.99
2018-03-22T08:58:49.975Z,3.02
2018-03-22T08:59:49.968Z,2.92
2018-03-22T09:00:49.954Z,2.97
2018-03-22T09:01:49.947Z,3.03
2018-03-22T09:02:49.936Z,2.92
2018-03-22T09:03:49.936Z,2.96
2018-03-22T09:04:49.920Z,2.95
2018-03-22T09:05:49.912Z,3.02
2018-03-22T09:06:49.917Z,3.06
2018-03-22T09:07:49.894Z,3.13
2018-03-22T09:08:49.890Z,3.03
2018-03-22T09:09:49.954Z,3.03
2018-03-22T09:10:49.920Z,3.06
2018-03-22T09:11:49.858Z,2.95
2018-03-22T09:12:49.849Z,2.97
2018-03-22T09:13:49.843Z,2.99
2018-03-22T09:14:49.833Z,3.08
2018-03-22T09:15:49.823Z,3.00
2018-03-22T09:16:49.815Z,2.99
2018-03-22T09:17:49.808Z,3.15
2018-03-22T09:18:49.795Z,3.02
2018-03-22T09:19:49.794Z,2.93
2018-03-22T09:20:49.783Z,2.93
2018-03-22T09:21:49.769Z,2.93
2018-03-22T09:22:49.762Z,2.89
2018-03-22T09:23:49.754Z,2.87
2018-03-22T09:24:49.747Z,2.96
2018-03-22T09:25:49.739Z,2.96
2018-03-22T09:26:49.729Z,2.96
2018-03-22T09:27:49.758Z,2.90
2018-03-22T09:28:49.711Z,2.85
2018-03-22T09:29:49.702Z,2.82
2018-03-22T09:30:49.694Z,2.89
2018-03-22T09:31:49.686Z,2.92
2018-03-22T09:32:49.678Z,2.84
2018-03-22T09:33:49.668Z,2.82
2018-03-22T09:34:49.699Z,2.84
2018-03-22T09:35:49.647Z,3.00
2018-03-22T09:36:49.642Z,2.89
2018-03-22T09:37:49.633Z,2.87
2018-03-22T09:38:49.624Z,2.87
2018-03-22T09:39:49.614Z,3.03
2018-03-22T09:40:49.606Z,2.99
2018-03-22T09:41:49.639Z,3.00
2018-03-22T09:42:49.589Z,2.82
2018-03-22T09:43:49.581Z,2.90
2018-03-22T09:44:49.574Z,2.87
2018-03-22T09:45:49.562Z,2.85
2018-03-22T09:46:49.828Z,2.90
2018-03-22T09:47:49.545Z,2.85
2018-03-22T09:48:49.539Z,2.84
2018-03-22T09:49:49.527Z,2.89
2018-03-22T09:50:49.519Z,2.90
2018-03-22T09:51:49.509Z,2.87
2018-03-22T09:52:49.508Z,2.87
2018-03-22T09:53:49.493Z,2.95
2018-03-22T09:54:49.483Z,3.08
2018-03-22T09:55:49.472Z,3.08
2018-03-22T09:56:49.473Z,3.11
2018-03-22T09:57:49.458Z,3.10
2018-03-22T09:58:49.450Z,3.13
2018-03-22T09:59:49.440Z,3.06
2018-03-22T10:00:49.432Z,3.26
2018-03-22T10:01:49.424Z,3.15
2018-03-22T10:02:49.459Z,3.06
2018-03-22T10:03:49.409Z,3.10
2018-03-22T10:04:49.396Z,3.06
2018-03-22T10:05:49.389Z,3.20
2018-03-22T10:06:49.378Z,3.10
2018-03-22T10:07:49.381Z,3.21
2018-03-22T10:08:49.364Z,3.21
2018-03-22T10:09:49.361Z,3.29
2018-03-22T10:10:49.345Z,3.28
2018-03-22T10:11:49.336Z,3.26
2018-03-22T10:12:49.335Z,3.21
2018-03-22T10:13:49.319Z,3.31
2018-03-22T10:14:49.311Z,3.24
2018-03-22T10:15:49.303Z,3.17
2018-03-22T10:16:49.293Z,3.24
2018-03-22T10:17:49.285Z,3.32
2018-03-22T10:18:49.276Z,3.33
2018-03-22T10:19:49.266Z,3.29
2018-03-22T10:20:49.260Z,3.35
2018-03-22T10:21:49.248Z,3.35
2018-03-22T10:22:49.242Z,3.43
2018-03-22T10:23:49.231Z,3.31
2018-03-22T10:24:49.224Z,3.29
2018-03-22T10:25:49.215Z,3.28
2018-03-22T10:26:49.209Z,3.31
2018-03-22T10:27:49.205Z,3.23
2018-03-22T10:28:49.194Z,3.26
2018-03-22T10:29:49.182Z,3.20
2018-03-22T10:30:49.174Z,3.11
2018-03-22T10:31:49.165Z,3.10
2018-03-22T10:32:49.158Z,3.08
2018-03-22T10:33:49.148Z,3.18
2018-03-22T10:34:49.147Z,3.08
2018-03-22T10:35:49.132Z,3.10
2018-03-22T10:36:49.136Z,3.14
2018-03-22T10:37:49.112Z,3.18
2018-03-22T10:38:49.106Z,2.97
2018-03-22T10:39:49.102Z,3.15
2018-03-22T10:40:49.088Z,3.10
2018-03-22T10:41:49.079Z,3.11
2018-03-22T10:42:49.128Z,3.05
2018-03-22T10:43:49.061Z,3.08
2018-03-22T10:44:49.054Z,2.97
2018-03-22T10:45:49.047Z,3.06
2018-03-22T10:46:49.037Z,3.10
2018-03-22T10:47:49.023Z,3.02
2018-03-22T10:48:49.020Z,3.10
2018-03-22T10:49:49.013Z,3.03
2018-03-22T10:50:49.012Z,3.13
2018-03-22T10:51:48.994Z,3.10
2018-03-22T10:52:48.985Z,3.10
2018-03-22T10:53:48.979Z,3.11
2018-03-22T10:54:48.974Z,3.13
2018-03-22T10:55:48.957Z,3.18
2018-03-22T10:56:48.951Z,3.05
2018-03-22T10:57:48.944Z,2.97
2018-03-22T10:58:48.933Z,3.03
2018-03-22T10:59:48.930Z,3.11
2018-03-22T11:00:48.920Z,3.02
2018-03-22T11:01:48.908Z,3.02
2018-03-22T11:02:48.899Z,2.99
2018-03-22T11:03:48.892Z,2.92
2018-03-22T11:04:48.882Z,2.84
2018-03-22T11:05:48.875Z,2.90
2018-03-22T11:06:48.865Z,3.00
2018-03-22T11:07:48.855Z,3.03
2018-03-22T11:08:48.847Z,2.92
2018-03-22T11:09:48.839Z,2.92
2018-03-22T11:10:48.831Z,2.95
2018-03-22T11:11:48.821Z,2.99
2018-03-22T11:12:48.818Z,2.89
2018-03-22T11:13:48.843Z,2.89
2018-03-22T11:14:48.795Z,2.89
2018-03-22T11:15:48.786Z,2.97
2018-03-22T11:16:48.778Z,2.82
2018-03-22T11:17:48.770Z,2.87
2018-03-22T11:18:48.760Z,2.87
2018-03-22T11:19:48.778Z,2.89
2018-03-22T11:20:48.742Z,2.79
2018-03-22T11:21:48.731Z,2.84
2018-03-22T11:22:48.725Z,2.82
2018-03-22T11:23:48.716Z,2.82
2018-03-22T11:24:48.711Z,2.75
2018-03-22T11:25:48.703Z,2.84
2018-03-22T11:26:48.693Z,2.93
2018-03-22T11:27:48.685Z,2.85
2018-03-22T11:28:48.677Z,2.90
2018-03-22T11:29:48.667Z,2.93
2018-03-22T11:30:48.660Z,2.87
2018-03-22T11:31:48.651Z,2.89
2018-03-22T11:32:48.641Z,2.93
2018-03-22T11:33:48.631Z,2.89
2018-03-22T11:34:48.623Z,2.87
2018-03-22T11:35:48.669Z,2.85
2018-03-22T11:36:48.609Z,2.85
2018-03-22T11:37:48.599Z,2.87
2018-03-22T11:38:48.592Z,2.87
2018-03-22T11:39:48.588Z,3.03
2018-03-22T11:40:48.574Z,2.95
2018-03-22T11:41:48.565Z,2.96
2018-03-22T11:42:48.556Z,3.03
2018-03-22T11:43:48.546Z,3.06
2018-03-22T11:44:48.536Z,3.14
2018-03-22T11:45:48.533Z,3.28
2018-03-22T11:46:48.520Z,3.26
2018-03-22T11:47:48.511Z,3.29
2018-03-22T11:48:48.502Z,3.28
2018-03-22T11:49:48.495Z,3.31
2018-03-22T11:50:48.528Z,3.45
2018-03-22T11:51:48.515Z,3.54
2018-03-22T11:52:48.512Z,3.51
2018-03-22T11:53:48.537Z,3.50
2018-03-22T11:54:48.474Z,3.62
2018-03-22T11:55:48.464Z,3.65
2018-03-22T11:56:48.455Z,3.54
2018-03-22T11:57:48.429Z,3.52
2018-03-22T11:58:48.419Z,3.62
2018-03-22T11:59:48.410Z,3.57
2018-03-22T12:00:48.417Z,3.51
2018-03-22T12:01:48.395Z,3.55
2018-03-22T12:02:48.383Z,3.54
2018-03-22T12:03:48.377Z,3.54
2018-03-22T12:04:48.385Z,3.60
2018-03-22T12:05:48.361Z,3.51
2018-03-22T12:06:48.358Z,3.54
2018-03-22T12:07:48.343Z,3.61
2018-03-22T12:08:48.335Z,3.60
2018-03-22T12:09:48.328Z,3.62
2018-03-22T12:10:48.376Z,3.61
2018-03-22T12:11:48.348Z,3.61
2018-03-22T12:12:48.301Z,3.52
2018-03-22T12:13:48.300Z,3.52
2018-03-22T12:14:48.287Z,3.58
2018-03-22T12:15:48.278Z,3.55
2018-03-22T12:16:48.322Z,3.60
2018-03-22T12:17:48.261Z,3.65
2018-03-22T12:18:48.253Z,3.66
2018-03-22T12:19:48.243Z,3.65
2018-03-22T12:20:48.243Z,3.61
2018-03-22T12:21:48.240Z,3.73
2018-03-22T12:22:48.220Z,3.69
2018-03-22T12:23:48.210Z,3.72
2018-03-22T12:24:48.209Z,3.78
2018-03-22T12:25:48.195Z,3.86
2018-03-22T12:26:48.189Z,3.90
2018-03-22T12:27:48.175Z,3.86
2018-03-22T12:28:48.170Z,3.96
2018-03-22T12:29:48.162Z,4.05
2018-03-22T12:30:48.155Z,4.04
2018-03-22T12:31:48.164Z,4.00
2018-03-22T12:32:48.136Z,3.98
2018-03-22T12:33:48.131Z,4.02
2018-03-22T12:34:48.138Z,4.08
2018-03-22T12:35:48.112Z,3.98
2018-03-22T12:36:48.105Z,4.08
2018-03-22T12:37:48.096Z,4.05
2018-03-22T12:38:48.091Z,4.02
2018-03-22T12:39:48.232Z,4.14
2018-03-22T12:40:48.080Z,4.12
2018-03-22T12:41:48.064Z,4.08
2018-03-22T12:42:48.057Z,4.14
2018-03-22T12:43:48.048Z,4.14
2018-03-22T12:44:48.120Z,4.14
2018-03-22T12:45:48.035Z,4.20
2018-03-22T12:46:48.028Z,4.12
2018-03-22T12:47:48.016Z,4.11
2018-03-22T12:48:48.006Z,4.20
2018-03-22T12:49:48.000Z,4.34
2018-03-22T12:50:47.988Z,4.33
2018-03-22T12:51:47.990Z,4.34
2018-03-22T12:52:47.976Z,4.29
2018-03-22T12:53:47.968Z,4.32
2018-03-22T12:54:47.964Z,4.30
2018-03-22T12:55:47.950Z,4.34
2018-03-22T12:56:47.973Z,4.32
2018-03-22T12:57:48.032Z,4.30
2018-03-22T12:58:47.928Z,4.32
2018-03-22T12:59:47.925Z,4.29
2018-03-22T13:00:47.913Z,4.30
2018-03-22T13:01:47.904Z,4.26
2018-03-22T13:02:47.896Z,4.26
2018-03-22T13:03:47.891Z,4.30
2018-03-22T13:04:47.880Z,4.32
2018-03-22T13:05:47.873Z,4.34
2018-03-22T13:06:48.015Z,4.30
2018-03-22T13:07:47.858Z,4.32
2018-03-22T13:08:47.877Z,4.34
2018-03-22T13:09:47.908Z,4.30
2018-03-22T13:10:47.837Z,4.33
2018-03-22T13:11:47.821Z,4.36
2018-03-22T13:12:47.817Z,4.37
2018-03-22T13:13:47.814Z,4.30
2018-03-22T13:14:47.826Z,4.45
2018-03-22T13:15:47.793Z,4.44
2018-03-22T13:16:47.830Z,4.44
2018-03-22T13:17:47.784Z,4.48
2018-03-22T13:18:47.790Z,4.54